Detall de PIREP

Printer-friendly versionPDF version

[2009/10/31 20:46:00]
Flight IATA:CT2309
Pilot Number:026
Company ICAO:CAT
Aircraft Type:DC85/A
PAX:136
Departing Airport: LIMJ
Destination Airport: LIEA
Alternate Airport:LIEO
Online: VATSIM
Route:UNITA UM858 CORSI
Flight Level:FL270
No Slew and time accel
No pause
Crash detect
Detect pilot in Cockpit between each 30 and 45 minutes
20:46 Zero fuel Weight: 180026 Lbs, Fuel Weight: 20024 Lbs
20:46 VATSIM:LIMJ 312020Z 02010KT 8000 NSC 14/08 Q1024
20:46 VATSIM:LIEA 312020Z VRB02KT 8000 BKN050 14/12 Q1023
20:47 VOICE CATALONIAN
20:54 Parking Brakes off
21:02 Take-off
21:02 Take off Weight: 198958 Lbs
21:02 Wind: 019º @ 010 Knots Heading: 288º
21:02 POS N44º 24´ 47´´ E008º 50´ 11´´
21:02 Gear Up: 180 Knots
21:02 Flaps:3 at 180 Knots
21:02 Flaps:2 at 207 Knots
21:03 Flaps:1 at 179 Knots
21:04 Flaps:0 at 224 Knots
21:10 TOC
21:10 Fuel Weight: 15695 Lb
21:17 Wind:00
4º@015 Knots Heading: 182º Ground Speed: 486 Knots Altitude 27378 ft
21:23 TOD
21:23 Fuel Weight: 12328 Lb
21:32 Wind:057º@006 Knots Heading: 189º Ground Speed: 306 Knots Altitude 6269 ft
21:38 Flaps:1 at 211 Knots
21:38 Gear Down: 196 Knots
21:38 Flaps:2 at 188 Knots
21:39 Flaps:3 at 141 Knots
21:39 Flaps:4 at 174 Knots
21:40 Flaps:5 at 188 Knots
21:41 TouchDown:Rate -513 ft/min Speed: 123 Knots
21:41 VATSIM:LIEA 312120Z VRB03KT 8000 NSC 13/12 Q1023
21:41 Land
21:41 Wind:345º@002 Knots
21:41 Heading: 204º
21:41 Flight Duration: 00:39
21:41 Landing Weight: 190539 Lbs
21:41 POS N40º 37´ 27´´ E008º 17´ 10´´
21:44 Parking brakes on
21:44 Block to Block Duration: 00:50
21:44 Final Fuel: 10187 Lbls
21:44 Spent Fuel: 9836 Lbls
21:44 Flight Length: 242 NM
21:44 TOD Land Length: 97 NM

Exportar CSV

Powered by Drupal - Modified by Danger4k